Time;durP1;ratioP1;P1;durP2;ratioP2;P2;SDS_P1;SDS_P2;PMS_P1;PMS_P2;Temp;Humidity;BMP_temperature;BMP_pressure;BME280_temperature;BME280_humidity;BME280_pressure;Samples;Min_cycle;Max_cycle;Signal;HPM_P1;HPM_P2
2022/01/01 00:00:34;;;;;;;84.93;49.03;;;;;;;;;;5051864;28;20059;-69
2022/01/01 00:03:00;;;;;;;105.88;58.42;;;;;;;;;;5051548;28;20433;-69
2022/01/01 00:05:26;;;;;;;133.02;76.38;;;;;;;;;;5052056;28;20045;-69
2022/01/01 00:07:53;;;;;;;107.80;58.78;;;;;;;;;;5052398;28;20461;-69
2022/01/01 00:10:20;;;;;;;100.22;50.70;;;;;;;;;;5052046;28;20049;-69
2022/01/01 00:12:47;;;;;;;82.72;43.30;;;;;;;;;;5052065;28;20072;-68
2022/01/01 00:15:14;;;;;;;76.65;38.50;;;;;;;;;;5051196;28;20403;-69
2022/01/01 00:17:40;;;;;;;77.95;37.92;;;;;;;;;;5050814;28;20053;-69
2022/01/01 00:20:09;;;;;;;66.63;34.10;;;;;;;;;;5034116;28;20049;-69
2022/01/01 00:22:35;;;;;;;61.85;32.22;;;;;;;;;;5034016;28;20045;-69
2022/01/01 00:25:01;;;;;;;62.90;29.83;;;;;;;;;;5051610;28;20068;-69
2022/01/01 00:27:27;;;;;;;59.25;26.00;;;;;;;;;;5034104;28;20047;-69
2022/01/01 00:29:53;;;;;;;61.50;27.45;;;;;;;;;;5051059;28;20123;-68
2022/01/01 00:32:19;;;;;;;59.75;26.65;;;;;;;;;;5033501;28;20048;-69
2022/01/01 00:34:45;;;;;;;64.07;27.75;;;;;;;;;;5051599;28;20041;-68
2022/01/01 00:37:11;;;;;;;57.67;26.05;;;;;;;;;;5051712;28;20125;-68
2022/01/01 00:39:37;;;;;;;57.60;26.73;;;;;;;;;;5051581;28;20120;-69
2022/01/01 00:42:03;;;;;;;61.45;25.73;;;;;;;;;;5051669;28;20059;-69
2022/01/01 00:44:30;;;;;;;56.92;24.75;;;;;;;;;;5050695;28;20036;-68
2022/01/01 00:46:57;;;;;;;51.92;23.90;;;;;;;;;;5050969;28;20142;-69
2022/01/01 00:49:22;;;;;;;56.90;22.92;;;;;;;;;;5051377;28;20112;-69
2022/01/01 00:51:48;;;;;;;52.20;22.70;;;;;;;;;;5051644;28;20060;-68
2022/01/01 00:54:14;;;;;;;55.20;23.05;;;;;;;;;;5051457;28;20297;-68
2022/01/01 00:56:40;;;;;;;59.45;24.40;;;;;;;;;;5051112;28;20033;-69
2022/01/01 00:59:06;;;;;;;60.75;25.95;;;;;;;;;;5050771;28;20040;-69
2022/01/01 01:01:32;;;;;;;72.35;29.40;;;;;;;;;;5051347;28;20045;-69
2022/01/01 01:03:58;;;;;;;66.43;29.52;;;;;;;;;;5051354;28;20091;-69
2022/01/01 01:06:24;;;;;;;68.00;29.58;;;;;;;;;;5051216;28;20406;-69
2022/01/01 01:08:53;;;;;;;71.45;30.90;;;;;;;;;;5051820;28;20043;-69
2022/01/01 01:11:20;;;;;;;66.95;32.60;;;;;;;;;;5051260;28;20448;-69
2022/01/01 01:13:55;;;;;;;64.85;29.70;;;;;;;;;;5050725;28;20029;-69
2022/01/01 01:16:21;;;;;;;72.70;34.88;;;;;;;;;;5033108;28;20049;-69
2022/01/01 01:18:47;;;;;;;71.47;35.17;;;;;;;;;;5051108;28;20033;-69
2022/01/01 01:21:13;;;;;;;72.93;35.70;;;;;;;;;;5051044;28;20029;-69
2022/01/01 01:23:39;;;;;;;70.47;37.08;;;;;;;;;;5051187;28;20037;-69
2022/01/01 01:26:06;;;;;;;75.93;38.70;;;;;;;;;;5050821;28;20130;-69
2022/01/01 01:28:32;;;;;;;78.45;39.03;;;;;;;;;;5051308;28;20580;-69
2022/01/01 01:30:58;;;;;;;81.53;39.90;;;;;;;;;;5031385;28;20073;-69
2022/01/01 01:33:24;;;;;;;86.72;40.75;;;;;;;;;;5049970;28;20040;-69
2022/01/01 01:35:50;;;;;;;80.30;40.08;;;;;;;;;;5050106;28;20037;-69
2022/01/01 01:38:16;;;;;;;78.85;39.72;;;;;;;;;;5050806;28;20033;-69
2022/01/01 01:40:42;;;;;;;82.80;41.47;;;;;;;;;;5034241;28;20131;-69
2022/01/01 01:43:11;;;;;;;96.30;42.60;;;;;;;;;;5054684;28;20044;-69
2022/01/01 01:45:37;;;;;;;89.18;40.78;;;;;;;;;;5054059;28;20041;-69
2022/01/01 01:48:03;;;;;;;84.38;41.03;;;;;;;;;;5054688;28;20049;-69
2022/01/01 01:50:30;;;;;;;86.68;43.08;;;;;;;;;;5036714;28;20051;-69
2022/01/01 01:52:58;;;;;;;88.85;40.42;;;;;;;;;;5054610;28;20044;-69
2022/01/01 01:55:27;;;;;;;90.00;43.22;;;;;;;;;;5053989;28;20541;-69
2022/01/01 01:57:53;;;;;;;91.22;44.67;;;;;;;;;;5054323;28;20041;-69
2022/01/01 02:03:09;;;;;;;92.28;45.08;;;;;;;;;;5054581;28;20041;-69
2022/01/01 02:05:35;;;;;;;90.90;44.70;;;;;;;;;;5053809;28;20075;-69
2022/01/01 02:08:01;;;;;;;94.85;44.63;;;;;;;;;;5054009;28;20041;-69
2022/01/01 02:10:27;;;;;;;93.13;43.80;;;;;;;;;;5054085;28;20041;-69
2022/01/01 02:12:55;;;;;;;93.00;43.03;;;;;;;;;;5054061;28;20051;-69
2022/01/01 02:15:40;;;;;;;97.60;43.85;;;;;;;;;;5053676;28;20124;-70
2022/01/01 02:18:07;;;;;;;97.03;44.50;;;;;;;;;;5053909;28;20113;-69
2022/01/01 02:20:33;;;;;;;91.85;42.17;;;;;;;;;;5038468;28;20469;-69
2022/01/01 02:23:00;;;;;;;95.30;46.15;;;;;;;;;;5054253;28;20033;-69
2022/01/01 02:25:27;;;;;;;90.47;44.72;;;;;;;;;;5053833;28;20045;-69
2022/01/01 02:27:53;;;;;;;101.18;44.25;;;;;;;;;;5053945;28;20049;-69
2022/01/01 02:30:19;;;;;;;97.88;47.17;;;;;;;;;;5053967;28;20051;-69
2022/01/01 02:32:45;;;;;;;94.07;46.85;;;;;;;;;;5053641;28;20505;-69
2022/01/01 02:35:13;;;;;;;96.88;45.58;;;;;;;;;;5053343;28;20045;-69
2022/01/01 02:37:40;;;;;;;94.03;46.55;;;;;;;;;;5018924;28;20044;-69
2022/01/01 02:40:06;;;;;;;108.85;49.35;;;;;;;;;;5053645;28;20090;-69
2022/01/01 02:42:33;;;;;;;108.32;51.58;;;;;;;;;;5035991;28;20474;-69
2022/01/01 02:45:00;;;;;;;105.85;52.38;;;;;;;;;;5035101;28;20123;-69
2022/01/01 02:47:26;;;;;;;115.72;51.22;;;;;;;;;;5052933;28;20071;-69
2022/01/01 02:49:52;;;;;;;112.60;53.30;;;;;;;;;;5053718;28;20147;-69
2022/01/01 02:52:18;;;;;;;111.70;54.65;;;;;;;;;;5053420;28;20052;-69
2022/01/01 02:54:44;;;;;;;111.68;54.75;;;;;;;;;;5053044;28;20053;-69
2022/01/01 02:57:10;;;;;;;112.50;55.15;;;;;;;;;;5053412;28;20048;-69
2022/01/01 02:59:36;;;;;;;107.15;55.17;;;;;;;;;;5052600;28;20063;-69
2022/01/01 03:02:02;;;;;;;110.82;56.47;;;;;;;;;;5050498;28;20063;-69
2022/01/01 03:04:28;;;;;;;114.30;55.38;;;;;;;;;;5051729;28;20071;-69
2022/01/01 03:06:56;;;;;;;113.03;55.08;;;;;;;;;;5033702;28;20045;-69
2022/01/01 03:09:24;;;;;;;112.38;55.55;;;;;;;;;;5052427;28;20537;-69
2022/01/01 03:11:50;;;;;;;116.18;55.05;;;;;;;;;;5053132;28;20452;-68
2022/01/01 03:14:17;;;;;;;117.43;56.63;;;;;;;;;;5052982;28;20474;-69
2022/01/01 03:16:47;;;;;;;115.40;57.63;;;;;;;;;;5051745;28;20091;-69
2022/01/01 03:19:13;;;;;;;106.30;53.88;;;;;;;;;;5052721;28;20037;-68
2022/01/01 03:21:40;;;;;;;110.88;55.72;;;;;;;;;;5052927;28;20163;-69
2022/01/01 03:24:06;;;;;;;122.60;56.80;;;;;;;;;;5052789;28;20078;-69
2022/01/01 03:26:32;;;;;;;121.90;57.63;;;;;;;;;;5052668;28;20040;-69
2022/01/01 03:28:58;;;;;;;113.78;56.55;;;;;;;;;;5034792;28;20044;-69
2022/01/01 03:31:25;;;;;;;117.63;57.55;;;;;;;;;;5051989;28;20037;-69
2022/01/01 03:33:51;;;;;;;111.53;56.53;;;;;;;;;;5052680;28;20048;-69
2022/01/01 03:36:18;;;;;;;111.20;55.97;;;;;;;;;;5034448;28;20051;-68
2022/01/01 03:38:43;;;;;;;116.15;57.38;;;;;;;;;;5052574;28;20044;-69
2022/01/01 03:41:09;;;;;;;122.07;56.13;;;;;;;;;;5052837;28;20041;-69
2022/01/01 03:43:35;;;;;;;116.63;57.58;;;;;;;;;;5052203;28;20035;-69
2022/01/01 03:46:01;;;;;;;107.47;53.28;;;;;;;;;;5052205;28;20037;-69
2022/01/01 03:48:27;;;;;;;117.72;57.85;;;;;;;;;;5052451;28;20041;-69
2022/01/01 03:50:53;;;;;;;115.68;58.08;;;;;;;;;;5052267;28;20041;-69
2022/01/01 03:53:19;;;;;;;109.53;55.63;;;;;;;;;;5052348;28;20076;-69
2022/01/01 03:55:45;;;;;;;114.38;55.00;;;;;;;;;;5034180;28;20048;-69
2022/01/01 03:58:11;;;;;;;108.72;56.33;;;;;;;;;;5051750;28;20037;-69
2022/01/01 04:00:40;;;;;;;111.10;52.70;;;;;;;;;;5051487;28;20402;-69
2022/01/01 04:03:10;;;;;;;111.80;55.28;;;;;;;;;;5051851;28;20044;-69
2022/01/01 04:05:37;;;;;;;110.35;54.60;;;;;;;;;;5052011;28;20041;-69
2022/01/01 04:08:04;;;;;;;119.43;56.33;;;;;;;;;;5051866;28;20508;-69
2022/01/01 04:10:31;;;;;;;108.80;53.38;;;;;;;;;;5051917;28;20498;-69
2022/01/01 04:12:58;;;;;;;110.38;52.90;;;;;;;;;;5051599;28;20087;-69
2022/01/01 04:15:24;;;;;;;106.35;52.22;;;;;;;;;;5051447;28;20052;-69
2022/01/01 04:17:50;;;;;;;106.78;53.08;;;;;;;;;;5051975;28;20033;-69
2022/01/01 04:20:16;;;;;;;101.05;52.60;;;;;;;;;;5051879;28;20178;-69
2022/01/01 04:22:42;;;;;;;113.15;53.35;;;;;;;;;;5051691;28;20506;-69
2022/01/01 04:25:08;;;;;;;108.55;50.72;;;;;;;;;;5051514;28;20037;-69
2022/01/01 04:27:34;;;;;;;103.13;51.25;;;;;;;;;;5051309;28;20040;-69
2022/01/01 04:30:00;;;;;;;100.35;49.05;;;;;;;;;;5051578;28;20043;-68
2022/01/01 04:32:26;;;;;;;106.20;49.92;;;;;;;;;;5034094;28;20479;-69
2022/01/01 04:34:52;;;;;;;100.82;48.88;;;;;;;;;;5051518;28;20045;-68
2022/01/01 04:37:20;;;;;;;104.60;48.67;;;;;;;;;;5051693;28;20033;-69
2022/01/01 04:39:46;;;;;;;98.30;50.03;;;;;;;;;;5051423;28;20115;-69
2022/01/01 04:42:12;;;;;;;105.03;48.17;;;;;;;;;;5051833;28;20051;-68
2022/01/01 04:44:38;;;;;;;101.85;48.15;;;;;;;;;;5051203;28;20407;-68
2022/01/01 04:47:04;;;;;;;98.10;48.05;;;;;;;;;;5051703;28;20417;-69
2022/01/01 04:49:30;;;;;;;98.93;48.20;;;;;;;;;;5051483;28;20037;-68
2022/01/01 04:51:56;;;;;;;97.85;46.65;;;;;;;;;;5051294;28;20047;-68
2022/01/01 04:54:22;;;;;;;96.10;45.88;;;;;;;;;;5051232;28;20032;-68
2022/01/01 04:56:48;;;;;;;94.22;47.78;;;;;;;;;;5050854;28;20518;-68
2022/01/01 04:59:15;;;;;;;96.03;45.28;;;;;;;;;;5051258;28;20056;-69
2022/01/01 05:01:41;;;;;;;96.20;45.85;;;;;;;;;;5046198;28;20046;-69
2022/01/01 05:04:08;;;;;;;100.63;46.08;;;;;;;;;;5048750;28;20044;-69
2022/01/01 05:06:35;;;;;;;98.05;46.05;;;;;;;;;;5048436;28;20040;-68
2022/01/01 05:09:01;;;;;;;96.68;46.47;;;;;;;;;;5049894;28;20515;-69
2022/01/01 05:11:27;;;;;;;96.50;46.22;;;;;;;;;;5050497;28;20044;-69
2022/01/01 05:13:53;;;;;;;106.40;46.67;;;;;;;;;;5050788;28;20116;-68
2022/01/01 05:16:20;;;;;;;95.60;46.63;;;;;;;;;;5053079;28;20049;-69
2022/01/01 05:18:46;;;;;;;99.15;45.83;;;;;;;;;;5054860;28;20041;-68
2022/01/01 05:21:13;;;;;;;94.75;46.15;;;;;;;;;;5054902;28;20041;-69
2022/01/01 05:23:38;;;;;;;91.88;45.25;;;;;;;;;;5054637;28;20491;-69
2022/01/01 05:26:04;;;;;;;87.97;41.72;;;;;;;;;;5054594;28;20093;-68
2022/01/01 05:28:31;;;;;;;94.03;46.63;;;;;;;;;;5054490;28;20033;-69
2022/01/01 05:30:57;;;;;;;92.90;45.10;;;;;;;;;;5054885;28;20041;-69
2022/01/01 05:33:23;;;;;;;97.72;44.38;;;;;;;;;;5054839;28;20041;-69
2022/01/01 05:35:49;;;;;;;95.18;43.17;;;;;;;;;;5054398;28;20090;-69
2022/01/01 05:38:17;;;;;;;82.35;40.05;;;;;;;;;;5054413;28;20048;-69
2022/01/01 05:40:43;;;;;;;91.57;40.72;;;;;;;;;;5054239;28;20103;-68
2022/01/01 05:43:13;;;;;;;78.75;37.40;;;;;;;;;;5054394;28;20041;-68
2022/01/01 05:45:40;;;;;;;87.72;37.88;;;;;;;;;;5054521;28;20048;-69
2022/01/01 05:48:06;;;;;;;81.20;37.15;;;;;;;;;;5036626;28;20375;-68
2022/01/01 05:50:32;;;;;;;74.95;32.88;;;;;;;;;;5054241;28;20119;-68
2022/01/01 05:52:57;;;;;;;73.30;30.48;;;;;;;;;;5036596;28;20044;-69
2022/01/01 05:55:23;;;;;;;68.38;29.40;;;;;;;;;;5053783;28;20080;-69
2022/01/01 05:57:49;;;;;;;68.18;28.08;;;;;;;;;;5035955;28;20041;-68
2022/01/01 06:00:16;;;;;;;64.95;25.75;;;;;;;;;;5054175;28;20041;-69
2022/01/01 06:02:42;;;;;;;69.03;27.13;;;;;;;;;;5036599;28;20051;-69
2022/01/01 06:05:08;;;;;;;63.67;24.65;;;;;;;;;;5053907;28;20052;-68
2022/01/01 06:07:34;;;;;;;59.28;24.92;;;;;;;;;;5054393;28;20051;-69
2022/01/01 06:10:00;;;;;;;62.80;24.42;;;;;;;;;;5054005;28;20044;-68
2022/01/01 06:12:26;;;;;;;55.95;24.15;;;;;;;;;;5052954;28;20118;-68
2022/01/01 06:14:53;;;;;;;53.40;22.45;;;;;;;;;;5035894;28;20045;-68
2022/01/01 06:17:19;;;;;;;61.75;23.48;;;;;;;;;;5036299;28;20506;-69
2022/01/01 06:19:45;;;;;;;61.55;21.65;;;;;;;;;;5053713;28;20048;-69
2022/01/01 06:22:11;;;;;;;53.15;21.08;;;;;;;;;;5053663;28;20033;-68
2022/01/01 06:24:37;;;;;;;57.42;21.23;;;;;;;;;;5053374;28;20483;-69
2022/01/01 06:27:03;;;;;;;53.72;21.95;;;;;;;;;;5053029;28;20037;-68
2022/01/01 06:29:29;;;;;;;48.58;19.58;;;;;;;;;;5053667;28;20033;-69
2022/01/01 06:31:55;;;;;;;57.13;21.92;;;;;;;;;;5053686;28;20120;-68
2022/01/01 06:34:21;;;;;;;49.10;20.05;;;;;;;;;;5053593;28;20120;-69
2022/01/01 06:36:47;;;;;;;52.97;20.20;;;;;;;;;;5053157;28;20045;-69
2022/01/01 06:39:13;;;;;;;49.45;20.45;;;;;;;;;;5053309;28;20175;-68
2022/01/01 06:41:39;;;;;;;52.30;19.05;;;;;;;;;;5053115;28;20086;-69
2022/01/01 06:44:05;;;;;;;53.10;20.80;;;;;;;;;;5053641;28;20041;-69
2022/01/01 06:46:31;;;;;;;59.47;21.50;;;;;;;;;;5053653;28;20052;-68
2022/01/01 06:48:57;;;;;;;57.28;20.77;;;;;;;;;;5053095;28;20452;-69
2022/01/01 06:51:23;;;;;;;48.45;21.13;;;;;;;;;;5053063;28;20045;-69
2022/01/01 06:53:49;;;;;;;58.70;21.75;;;;;;;;;;5053147;28;20036;-69
2022/01/01 06:56:15;;;;;;;46.90;21.08;;;;;;;;;;5052654;28;20041;-68
2022/01/01 06:58:41;;;;;;;53.33;21.63;;;;;;;;;;5053233;28;20041;-69
2022/01/01 07:01:07;;;;;;;56.97;20.88;;;;;;;;;;5035150;28;20414;-69
2022/01/01 07:03:33;;;;;;;58.28;21.50;;;;;;;;;;5053491;28;20037;-69
2022/01/01 07:05:59;;;;;;;55.25;20.40;;;;;;;;;;5034834;28;20060;-68
2022/01/01 07:08:25;;;;;;;60.33;21.45;;;;;;;;;;5052867;28;20045;-69
2022/01/01 07:10:51;;;;;;;55.70;20.92;;;;;;;;;;5052685;28;20068;-69
2022/01/01 07:13:17;;;;;;;51.78;20.45;;;;;;;;;;5053021;28;20391;-69
2022/01/01 07:15:43;;;;;;;58.42;21.95;;;;;;;;;;5052585;28;20049;-69
2022/01/01 07:18:09;;;;;;;64.93;22.20;;;;;;;;;;5052752;28;20032;-69
2022/01/01 07:20:35;;;;;;;56.60;20.75;;;;;;;;;;5034855;28;20128;-69
2022/01/01 07:23:01;;;;;;;52.38;20.67;;;;;;;;;;5052716;28;20518;-69
2022/01/01 07:25:28;;;;;;;50.00;20.67;;;;;;;;;;5052370;28;20033;-69
2022/01/01 07:27:54;;;;;;;50.38;20.58;;;;;;;;;;5052778;28;20041;-69
2022/01/01 07:30:20;;;;;;;60.40;21.88;;;;;;;;;;5052267;28;20098;-68
2022/01/01 07:32:47;;;;;;;56.55;21.05;;;;;;;;;;5052324;28;20037;-69
2022/01/01 07:35:13;;;;;;;57.75;22.88;;;;;;;;;;5052312;28;20044;-69
2022/01/01 07:37:39;;;;;;;53.05;21.58;;;;;;;;;;5051484;28;20044;-68
2022/01/01 07:40:06;;;;;;;55.92;21.92;;;;;;;;;;5051952;28;20129;-69
2022/01/01 07:42:32;;;;;;;52.53;21.45;;;;;;;;;;5052471;28;20033;-69
2022/01/01 07:44:59;;;;;;;60.35;21.73;;;;;;;;;;5052005;28;20055;-68
2022/01/01 07:47:25;;;;;;;55.90;21.25;;;;;;;;;;5052059;28;20048;-69
2022/01/01 07:49:51;;;;;;;63.33;22.67;;;;;;;;;;5051868;28;20047;-69
2022/01/01 07:52:17;;;;;;;57.40;22.75;;;;;;;;;;5052373;28;20038;-69
2022/01/01 07:54:43;;;;;;;60.25;23.23;;;;;;;;;;5051532;28;20039;-69
2022/01/01 07:57:09;;;;;;;61.17;22.40;;;;;;;;;;5052136;28;20510;-69
2022/01/01 07:59:35;;;;;;;54.97;23.05;;;;;;;;;;5051758;28;20045;-68
2022/01/01 08:02:01;;;;;;;58.03;23.45;;;;;;;;;;5051674;28;20033;-69
2022/01/01 08:04:27;;;;;;;58.42;23.35;;;;;;;;;;5051402;28;20037;-69
2022/01/01 08:06:53;;;;;;;67.20;24.40;;;;;;;;;;5033581;28;20041;-69
2022/01/01 08:09:19;;;;;;;64.07;25.40;;;;;;;;;;5052013;28;20051;-69
2022/01/01 08:11:45;;;;;;;56.67;25.25;;;;;;;;;;5051852;28;20449;-68
2022/01/01 08:14:11;;;;;;;57.42;24.38;;;;;;;;;;5051770;28;20504;-68
2022/01/01 08:16:56;;;;;;;68.18;25.35;;;;;;;;;;5051787;28;20040;-69
2022/01/01 08:19:22;;;;;;;68.55;25.95;;;;;;;;;;5051561;28;20044;-69
2022/01/01 08:21:48;;;;;;;54.97;27.05;;;;;;;;;;5051231;28;20029;-69
2022/01/01 08:24:14;;;;;;;52.88;23.33;;;;;;;;;;5051336;28;20094;-69
2022/01/01 08:26:39;;;;;;;61.95;24.80;;;;;;;;;;5051326;28;20175;-69
2022/01/01 08:29:05;;;;;;;66.28;27.48;;;;;;;;;;5051311;28;20040;-69
2022/01/01 08:31:31;;;;;;;65.47;25.80;;;;;;;;;;5051445;28;20554;-69
2022/01/01 08:33:57;;;;;;;66.30;26.52;;;;;;;;;;5050931;28;20398;-69
2022/01/01 08:36:23;;;;;;;65.00;27.17;;;;;;;;;;5051106;28;20048;-70
2022/01/01 08:38:49;;;;;;;62.47;27.17;;;;;;;;;;5051541;28;20048;-69
2022/01/01 08:41:15;;;;;;;59.47;26.02;;;;;;;;;;5050935;28;20036;-69
2022/01/01 08:43:41;;;;;;;58.70;25.30;;;;;;;;;;5051218;28;20171;-69
2022/01/01 08:46:07;;;;;;;71.88;26.90;;;;;;;;;;5051321;28;20127;-69
2022/01/01 08:48:34;;;;;;;55.90;25.15;;;;;;;;;;5051173;28;20128;-69
2022/01/01 08:51:00;;;;;;;63.65;26.88;;;;;;;;;;5054554;28;20036;-69
2022/01/01 08:53:26;;;;;;;61.03;25.38;;;;;;;;;;5055557;28;20041;-69
2022/01/01 08:55:52;;;;;;;57.15;25.20;;;;;;;;;;5055147;28;20099;-69
2022/01/01 08:58:18;;;;;;;56.75;26.48;;;;;;;;;;5055735;28;20103;-69
2022/01/01 09:00:44;;;;;;;62.85;26.05;;;;;;;;;;5055403;28;20398;-69
2022/01/01 09:03:10;;;;;;;58.72;26.35;;;;;;;;;;5054953;28;20064;-69
2022/01/01 09:05:36;;;;;;;58.58;25.83;;;;;;;;;;5054709;28;20502;-69
2022/01/01 09:08:01;;;;;;;58.22;26.10;;;;;;;;;;5055294;28;20051;-69
2022/01/01 09:10:27;;;;;;;59.38;26.38;;;;;;;;;;5036952;28;20410;-69
2022/01/01 09:12:53;;;;;;;54.90;25.52;;;;;;;;;;5054973;28;20109;-69
2022/01/01 09:15:19;;;;;;;60.33;25.38;;;;;;;;;;5055022;28;20037;-69
2022/01/01 09:17:45;;;;;;;56.13;25.05;;;;;;;;;;5054798;28;20037;-69
2022/01/01 09:20:11;;;;;;;54.38;25.90;;;;;;;;;;5054690;28;20036;-69
2022/01/01 09:22:37;;;;;;;55.25;24.73;;;;;;;;;;5037036;28;20045;-69
2022/01/01 09:25:04;;;;;;;52.80;24.25;;;;;;;;;;5036950;28;20044;-69
2022/01/01 09:27:30;;;;;;;49.67;23.67;;;;;;;;;;5054706;28;20048;-69
2022/01/01 09:29:56;;;;;;;56.47;25.52;;;;;;;;;;5054888;28;20048;-69
2022/01/01 09:32:22;;;;;;;46.42;22.05;;;;;;;;;;5054879;28;20055;-69
2022/01/01 09:34:48;;;;;;;50.97;23.63;;;;;;;;;;5054391;28;20043;-69
2022/01/01 09:37:14;;;;;;;49.38;22.52;;;;;;;;;;5054704;28;20041;-69
2022/01/01 09:39:40;;;;;;;44.92;21.83;;;;;;;;;;5054192;28;20421;-69
2022/01/01 09:42:06;;;;;;;44.53;20.85;;;;;;;;;;5054352;28;20052;-69
2022/01/01 09:44:36;;;;;;;45.38;20.83;;;;;;;;;;5054552;28;20037;-69
2022/01/01 09:47:02;;;;;;;43.38;19.48;;;;;;;;;;5054366;28;20128;-69
2022/01/01 09:49:28;;;;;;;41.88;18.98;;;;;;;;;;5054249;28;20083;-69
2022/01/01 09:51:54;;;;;;;42.30;19.23;;;;;;;;;;5054426;28;20080;-69
2022/01/01 09:54:20;;;;;;;37.15;18.08;;;;;;;;;;5054081;28;20048;-69
2022/01/01 09:56:46;;;;;;;34.67;17.05;;;;;;;;;;5053876;28;20380;-69
2022/01/01 09:59:14;;;;;;;38.40;17.38;;;;;;;;;;5054506;28;20041;-69
2022/01/01 10:01:40;;;;;;;40.17;16.25;;;;;;;;;;5053620;28;20382;-69
2022/01/01 10:04:13;;;;;;;32.20;15.00;;;;;;;;;;5054271;28;20037;-69
2022/01/01 10:06:39;;;;;;;32.40;14.82;;;;;;;;;;5054024;28;20040;-69
2022/01/01 10:09:07;;;;;;;31.15;14.38;;;;;;;;;;5053592;28;20037;-69
2022/01/01 10:11:33;;;;;;;27.65;13.27;;;;;;;;;;5053886;28;20049;-69
2022/01/01 10:14:00;;;;;;;29.77;13.40;;;;;;;;;;5036087;28;20044;-69
2022/01/01 10:16:26;;;;;;;30.42;12.80;;;;;;;;;;5053908;28;20048;-69
2022/01/01 10:18:53;;;;;;;30.42;12.90;;;;;;;;;;5053741;28;20118;-69
2022/01/01 10:21:24;;;;;;;24.88;12.45;;;;;;;;;;5053708;28;20040;-69
2022/01/01 10:23:52;;;;;;;29.52;12.25;;;;;;;;;;5053355;28;20510;-69
2022/01/01 10:29:08;;;;;;;21.63;11.38;;;;;;;;;;5053842;28;20099;-69
2022/01/01 10:31:35;;;;;;;21.10;11.10;;;;;;;;;;5053624;28;20131;-69
2022/01/01 10:34:01;;;;;;;22.00;10.88;;;;;;;;;;5053796;28;20429;-69
2022/01/01 10:36:29;;;;;;;25.95;11.32;;;;;;;;;;5053462;28;20055;-69
2022/01/01 10:39:06;;;;;;;23.80;10.43;;;;;;;;;;5053390;28;20036;-69
2022/01/01 10:41:43;;;;;;;25.30;10.93;;;;;;;;;;5054490;22;20042;-76
2022/01/01 10:44:09;;;;;;;25.17;10.80;;;;;;;;;;5033331;28;20403;-77
2022/01/01 10:46:37;;;;;;;22.30;10.40;;;;;;;;;;5033312;28;20041;-76
2022/01/01 10:49:30;;;;;;;23.52;10.73;;;;;;;;;;5033656;28;20407;-76
2022/01/01 10:51:56;;;;;;;22.52;9.88;;;;;;;;;;5028135;28;20455;-77
2022/01/01 10:54:25;;;;;;;25.23;10.50;;;;;;;;;;5013570;28;20037;-77
2022/01/01 10:56:51;;;;;;;25.55;10.18;;;;;;;;;;5013065;28;20416;-77
2022/01/01 10:59:29;;;;;;;21.52;10.00;;;;;;;;;;5013739;28;20046;-76
2022/01/01 11:01:58;;;;;;;21.73;9.35;;;;;;;;;;5022403;28;20100;-77
2022/01/01 11:04:24;;;;;;;23.15;9.93;;;;;;;;;;5024377;28;20117;-77
2022/01/01 11:06:50;;;;;;;22.00;9.15;;;;;;;;;;5007711;28;20120;-77
2022/01/01 11:09:17;;;;;;;20.45;9.10;;;;;;;;;;5012892;28;20046;-77
2022/01/01 11:11:44;;;;;;;19.65;9.38;;;;;;;;;;5013432;28;20048;-77
2022/01/01 11:14:10;;;;;;;21.10;8.80;;;;;;;;;;5013522;28;20038;-77
2022/01/01 11:16:38;;;;;;;20.80;9.05;;;;;;;;;;5025440;28;20045;-77
2022/01/01 11:19:04;;;;;;;19.13;7.97;;;;;;;;;;5033362;28;20041;-77
2022/01/01 11:21:30;;;;;;;17.88;8.40;;;;;;;;;;5022765;28;20435;-77
2022/01/01 11:23:56;;;;;;;18.55;8.25;;;;;;;;;;5013421;28;20041;-77
2022/01/01 11:26:23;;;;;;;20.52;8.65;;;;;;;;;;5013238;28;20042;-77
2022/01/01 11:28:49;;;;;;;19.70;8.32;;;;;;;;;;5013190;28;20527;-76
2022/01/01 11:31:19;;;;;;;16.08;7.25;;;;;;;;;;5020053;28;20033;-77
2022/01/01 11:33:50;;;;;;;21.15;7.60;;;;;;;;;;5032911;28;20034;-77
2022/01/01 11:36:21;;;;;;;16.02;7.65;;;;;;;;;;5019664;28;20048;-78
2022/01/01 11:38:47;;;;;;;15.65;6.80;;;;;;;;;;5013124;28;20041;-78
2022/01/01 11:41:15;;;;;;;19.85;7.80;;;;;;;;;;5012760;28;20441;-77
2022/01/01 11:43:48;;;;;;;17.42;7.25;;;;;;;;;;5012889;28;20045;-78
2022/01/01 11:46:14;;;;;;;18.35;7.65;;;;;;;;;;5012967;28;20474;-78
2022/01/01 11:48:41;;;;;;;20.27;8.20;;;;;;;;;;5012653;28;20130;-77
2022/01/01 11:51:24;;;;;;;17.50;7.18;;;;;;;;;;5012793;28;20045;-77
2022/01/01 11:54:09;;;;;;;19.75;7.00;;;;;;;;;;5008806;28;20034;-76
2022/01/01 11:56:50;;;;;;;15.55;7.15;;;;;;;;;;5010438;28;20048;-75
2022/01/01 11:59:17;;;;;;;20.05;7.60;;;;;;;;;;4975712;28;20084;-75
2022/01/01 12:01:43;;;;;;;14.40;6.60;;;;;;;;;;5006431;28;20030;-75
2022/01/01 12:04:22;;;;;;;15.38;6.97;;;;;;;;;;5005464;28;20050;-75
2022/01/01 12:06:52;;;;;;;14.93;7.55;;;;;;;;;;5008199;28;20551;-75
2022/01/01 12:09:18;;;;;;;14.50;7.30;;;;;;;;;;5010580;28;20518;-73
2022/01/01 12:11:49;;;;;;;15.73;7.78;;;;;;;;;;5009569;28;20503;-73
2022/01/01 12:14:15;;;;;;;;;;;;;;;;;;5008054;28;20041;-73
2022/01/01 12:16:52;;;;;;;18.13;6.90;;;;;;;;;;5010917;28;19921;-73
2022/01/01 12:19:20;;;;;;;16.92;6.95;;;;;;;;;;5011114;28;20119;-73
2022/01/01 12:21:48;;;;;;;16.65;7.72;;;;;;;;;;5008800;28;20038;-73
2022/01/01 12:24:19;;;;;;;19.48;7.97;;;;;;;;;;5005002;28;20046;-73
2022/01/01 12:26:55;;;;;;;17.77;7.88;;;;;;;;;;5005998;28;20503;-73
2022/01/01 12:29:27;;;;;;;17.00;7.90;;;;;;;;;;5006490;28;20038;-73
2022/01/01 12:31:57;;;;;;;15.05;7.20;;;;;;;;;;5004894;28;20045;-73
2022/01/01 12:34:23;;;;;;;17.45;7.05;;;;;;;;;;5004587;28;20053;-72
2022/01/01 12:36:53;;;;;;;17.77;7.85;;;;;;;;;;5002911;28;20049;-73
2022/01/01 12:39:20;;;;;;;17.43;7.40;;;;;;;;;;5008777;28;20080;-72
2022/01/01 12:41:46;;;;;;;14.50;7.57;;;;;;;;;;5003423;28;20042;-73
2022/01/01 12:44:17;;;;;;;23.05;8.23;;;;;;;;;;5005894;28;20034;-72
2022/01/01 12:46:48;;;;;;;17.30;7.65;;;;;;;;;;5005143;28;20042;-72
2022/01/01 12:49:14;;;;;;;17.88;8.10;;;;;;;;;;5005554;28;20045;-73
2022/01/01 12:51:40;;;;;;;15.65;7.55;;;;;;;;;;5004272;28;20064;-72
2022/01/01 12:54:08;;;;;;;18.05;7.57;;;;;;;;;;5005843;28;20053;-73
2022/01/01 12:56:35;;;;;;;14.25;7.47;;;;;;;;;;5001518;28;20041;-72
2022/01/01 12:59:05;;;;;;;16.05;7.53;;;;;;;;;;5007318;28;20037;-72
2022/01/01 13:01:32;;;;;;;15.90;7.30;;;;;;;;;;5001888;28;20038;-73
2022/01/01 13:04:02;;;;;;;17.65;7.60;;;;;;;;;;5005944;28;20034;-72
2022/01/01 13:06:28;;;;;;;22.15;8.15;;;;;;;;;;5000286;28;20049;-72
2022/01/01 13:08:55;;;;;;;15.98;8.30;;;;;;;;;;5003112;28;20134;-73
2022/01/01 13:11:21;;;;;;;19.88;7.70;;;;;;;;;;5003791;28;20042;-72
2022/01/01 13:13:47;;;;;;;21.38;7.88;;;;;;;;;;5004879;28;20044;-72
2022/01/01 13:16:13;;;;;;;15.93;7.68;;;;;;;;;;5007352;28;20038;-72
2022/01/01 13:18:39;;;;;;;18.30;8.23;;;;;;;;;;5008582;28;20103;-73
2022/01/01 13:21:05;;;;;;;15.30;7.57;;;;;;;;;;5008728;28;20042;-73
2022/01/01 13:23:32;;;;;;;18.77;8.18;;;;;;;;;;4993027;28;20042;-72
2022/01/01 13:25:58;;;;;;;13.23;7.40;;;;;;;;;;4983343;28;20045;-72
2022/01/01 13:28:25;;;;;;;16.50;7.07;;;;;;;;;;4983468;28;20535;-72
2022/01/01 13:30:52;;;;;;;15.88;7.68;;;;;;;;;;4993080;28;20053;-72
2022/01/01 13:33:18;;;;;;;21.00;7.75;;;;;;;;;;5009103;28;20041;-72
2022/01/01 13:35:49;;;;;;;14.88;7.60;;;;;;;;;;5012022;28;20446;-73
2022/01/01 13:38:15;;;;;;;;;;;;;;;;;;5010191;28;20046;-73
2022/01/01 13:40:43;;;;;;;17.42;7.28;;;;;;;;;;5007066;28;19948;-72
2022/01/01 13:43:10;;;;;;;15.65;7.35;;;;;;;;;;5004185;28;20034;-73
2022/01/01 13:45:36;;;;;;;14.85;7.45;;;;;;;;;;5004603;28;20042;-72
2022/01/01 13:48:09;;;;;;;18.75;8.30;;;;;;;;;;5014470;28;20046;-73
2022/01/01 13:50:46;;;;;;;11.80;6.95;;;;;;;;;;5011046;28;20458;-73
2022/01/01 13:53:13;;;;;;;16.27;7.68;;;;;;;;;;5011417;28;20408;-73
2022/01/01 13:55:52;;;;;;;13.93;7.30;;;;;;;;;;5020370;28;20044;-73
2022/01/01 13:58:19;;;;;;;15.73;7.40;;;;;;;;;;5010651;28;20203;-74
2022/01/01 14:00:54;;;;;;;19.40;7.35;;;;;;;;;;5011698;28;20034;-73
2022/01/01 14:03:24;;;;;;;14.95;7.90;;;;;;;;;;5008894;28;20038;-73
2022/01/01 14:05:54;;;;;;;14.13;8.05;;;;;;;;;;5004452;28;20041;-72
2022/01/01 14:08:21;;;;;;;17.80;7.50;;;;;;;;;;5003567;28;20046;-72
2022/01/01 14:10:56;;;;;;;11.23;7.25;;;;;;;;;;5003999;28;20050;-73
2022/01/01 14:13:29;;;;;;;15.65;7.90;;;;;;;;;;4990467;28;20048;-72
2022/01/01 14:15:56;;;;;;;22.13;12.70;;;;;;;;;;5013118;28;20041;-73
2022/01/01 14:18:29;;;;;;;14.75;8.10;;;;;;;;;;5006903;28;20395;-72
2022/01/01 14:20:55;;;;;;;14.82;7.47;;;;;;;;;;5008011;28;20518;-72
2022/01/01 14:23:32;;;;;;;15.50;7.53;;;;;;;;;;5012591;28;20045;-72